| time (UTC) | temp F | wind direction | speed MPH | gust MPH | rain 1hr in | rain 24hr in | rain mn in | humidity % | barometer mb |
| 20260504194528 | 69 | 294 | 4.0 | 13.0 | 0.00 | 0.00 | 0.00 | 33 | 1006.2 |
| 20260504194014 | 70 | 297 | 7.0 | 16.0 | 0.00 | 0.00 | 0.00 | 32 | 1006.1 |
| 20260504193509 | 70 | 279 | 9.0 | 16.0 | 0.00 | 0.00 | 0.00 | 33 | 1006.0 |
| 20260504193027 | 71 | 229 | 6.0 | 12.0 | 0.00 | 0.00 | 0.00 | 31 | 1006.1 |
| 20260504192509 | 71 | 167 | 8.0 | 17.0 | 0.00 | 0.00 | 0.00 | 32 | 1005.9 |
| 20260504192009 | 71 | 271 | 6.0 | 16.0 | 0.00 | 0.00 | 0.00 | 30 | 1006.1 |
| 20260504191538 | 71 | 260 | 6.0 | 17.0 | 0.00 | 0.00 | 0.00 | 34 | 1006.2 |
| 20260504191010 | 71 | 245 | 7.0 | 17.0 | 0.00 | 0.00 | 0.00 | 32 | 1006.2 |
| 20260504190507 | 71 | 306 | 8.0 | 16.0 | 0.00 | 0.00 | 0.00 | 31 | 1006.3 |
| 20260504190012 | 70 | 273 | 9.0 | 14.0 | 0.00 | 0.00 | 0.00 | 31 | 1006.4 |
| 20260504185511 | 71 | 258 | 5.0 | 16.0 | 0.00 | 0.00 | 0.00 | 30 | 1006.3 |
| 20260504185006 | 70 | 286 | 10.0 | 20.0 | 0.00 | 0.00 | 0.00 | 31 | 1006.4 |
| 20260504184528 | 71 | 227 | 6.0 | 20.0 | 0.00 | 0.00 | 0.00 | 33 | 1006.5 |
| 20260504184007 | 70 | 246 | 8.0 | 19.0 | 0.00 | 0.00 | 0.00 | 31 | 1006.5 |
| 20260504183503 | 70 | 262 | 9.0 | 20.0 | 0.00 | 0.00 | 0.00 | 32 | 1006.6 |
| 20260504183033 | 69 | 294 | 8.0 | 28.0 | 0.00 | 0.00 | 0.00 | 29 | 1006.7 |
| 20260504182509 | 70 | 288 | 10.0 | 22.0 | 0.00 | 0.00 | 0.00 | 33 | 1006.7 |
| 20260504182011 | 70 | 196 | 7.0 | 15.0 | 0.00 | 0.00 | 0.00 | 30 | 1006.7 |
| 20260504181523 | 70 | 272 | 7.0 | 19.0 | 0.00 | 0.00 | 0.00 | 33 | 1006.7 |
| 20260504181011 | 69 | 281 | 9.0 | 27.0 | 0.00 | 0.00 | 0.00 | 31 | 1006.7 |
| 20260504180515 | 69 | 183 | 10.0 | 27.0 | 0.00 | 0.00 | 0.00 | 30 | 1006.7 |
| 20260504180021 | 70 | 253 | 5.0 | 17.0 | 0.00 | 0.00 | 0.00 | 30 | 1006.8 |
| 20260504175507 | 69 | 151 | 6.0 | 16.0 | 0.00 | 0.00 | 0.00 | 35 | 1006.7 |
| 20260504175010 | 69 | 259 | 10.0 | 16.0 | 0.00 | 0.00 | 0.00 | 30 | 1006.7 |
| 20260504174526 | 69 | 242 | 8.0 | 15.0 | 0.00 | 0.00 | 0.00 | 30 | 1006.8 |
| 20260504174006 | 70 | 275 | 8.0 | 23.0 | 0.00 | 0.00 | 0.00 | 33 | 1006.9 |
| 20260504173503 | 68 | 264 | 5.0 | 23.0 | 0.00 | 0.00 | 0.00 | 36 | 1006.8 |
| 20260504173018 | 68 | 252 | 11.0 | 22.0 | 0.00 | 0.00 | 0.00 | 34 | 1006.9 |
| 20260504172510 | 68 | 196 | 12.0 | 22.0 | 0.00 | 0.00 | 0.00 | 31 | 1007.0 |
| 20260504172007 | 68 | 232 | 12.0 | 22.0 | 0.00 | 0.00 | 0.00 | 32 | 1006.9 |
| 20260504171521 | 68 | 323 | 8.0 | 23.0 | 0.00 | 0.00 | 0.00 | 35 | 1006.9 |
| 20260504171013 | 68 | 273 | 10.0 | 23.0 | 0.00 | 0.00 | 0.00 | 33 | 1007.1 |
| 20260504170510 | 69 | 255 | 9.0 | 23.0 | 0.00 | 0.00 | 0.00 | 33 | 1007.1 |
| 20260504151003 | 63 | 5 | 5.0 | 19.0 | 0.00 | 0.00 | 0.00 | 40 | 1008.5 |
| 20260504150511 | 64 | 257 | 10.0 | 17.0 | 0.00 | 0.00 | 0.00 | 38 | 1008.3 |
| 20260504141011 | 62 | 276 | 5.0 | 13.0 | 0.00 | 0.00 | 0.00 | 40 | 1008.8 |
| 20260504140508 | 62 | 278 | 4.0 | 13.0 | 0.00 | 0.00 | 0.00 | 40 | 1008.8 |
| 20260504130510 | 57 | 266 | 5.0 | 8.0 | 0.00 | 0.00 | 0.00 | 48 | 1009.8 |
| 20260504110506 | 47 | 50 | 1.0 | 7.0 | 0.00 | 0.00 | 0.00 | 60 | 1010.1 |
| 20260504100507 | 41 | 265 | 0.0 | 2.0 | 0.00 | 0.00 | 0.00 | 80 | 1010.1 |
| 20260504081527 | 41 | 268 | 1.0 | 2.0 | 0.00 | 0.00 | 0.00 | 78 | 1010.1 |
| 20260504081009 | 41 | 268 | 0.0 | 2.0 | 0.00 | 0.00 | 0.00 | 76 | 1010.0 |
| 20260504080510 | 41 | 268 | 0.0 | 0.0 | 0.00 | 0.00 | 0.00 | 74 | 1010.0 |
| 20260504050504 | 38 | 267 | 2.0 | 6.0 | 0.00 | 0.00 | 0.00 | 77 | 1009.9 |
| 20260504045503 | 36 | 261 | 2.0 | 4.0 | 0.00 | 0.00 | 0.00 | 83 | 1010.0 |
| 20260504045012 | 36 | 263 | 1.0 | 2.0 | 0.00 | 0.00 | 0.00 | 83 | 1010.0 |
| 20260504044508 | 35 | 263 | 1.0 | 2.0 | 0.00 | 0.00 | 0.00 | 83 | 1010.0 |
| 20260504044006 | 35 | 261 | 1.0 | 2.0 | 0.00 | 0.00 | 0.00 | 84 | 1010.1 |
| 20260504043506 | 35 | 259 | 1.0 | 2.0 | 0.00 | 0.00 | 0.00 | 82 | 1010.1 |
| 20260504043010 | 35 | 253 | 1.0 | 2.0 | 0.00 | 0.00 | 0.00 | 83 | 1010.1 |
| 20260504042504 | 34 | 251 | 1.0 | 2.0 | 0.00 | 0.00 | 0.00 | 84 | 1010.0 |
| 20260504042006 | 34 | 251 | 1.0 | 2.0 | 0.00 | 0.00 | 0.00 | 83 | 1010.0 |
| 20260504041508 | 34 | 251 | 1.0 | 2.0 | 0.00 | 0.00 | 0.00 | 83 | 1009.9 |
| 20260504041005 | 35 | 254 | 1.0 | 2.0 | 0.00 | 0.00 | 0.00 | 83 | 1009.9 |
| 20260504040507 | 35 | 255 | 1.0 | 1.0 | 0.00 | 0.00 | 0.00 | 83 | 1009.8 |
| 20260504040008 | 35 | 255 | 1.0 | 1.0 | 0.00 | 0.00 | 0.00 | 83 | 1009.7 |
| 20260504035504 | 35 | 255 | 1.0 | 1.0 | 0.00 | 0.00 | 0.00 | 81 | 1009.8 |
| 20260504035006 | 35 | 255 | 0.0 | 2.0 | 0.00 | 0.00 | 0.00 | 82 | 1009.7 |
| 20260504034509 | 35 | 255 | 0.0 | 2.0 | 0.00 | 0.00 | 0.00 | 82 | 1009.6 |
| 20260504034003 | 35 | 255 | 1.0 | 2.0 | 0.00 | 0.00 | 0.00 | 83 | 1009.6 |
| 20260504033507 | 35 | 255 | 1.0 | 2.0 | 0.00 | 0.00 | 0.00 | 82 | 1009.6 |
| 20260504033007 | 35 | 255 | 1.0 | 2.0 | 0.00 | 0.00 | 0.00 | 82 | 1009.6 |
| 20260504032507 | 35 | 255 | 1.0 | 2.0 | 0.00 | 0.00 | 0.00 | 81 | 1009.6 |
| 20260504032008 | 35 | 255 | 1.0 | 1.0 | 0.00 | 0.00 | 0.00 | 79 | 1009.6 |
| 20260504031510 | 35 | 255 | 1.0 | 2.0 | 0.00 | 0.00 | 0.00 | 77 | 1009.6 |
| 20260504031006 | 36 | 255 | 0.0 | 2.0 | 0.00 | 0.00 | 0.00 | 77 | 1009.6 |
| 20260504030504 | 36 | 255 | 0.0 | 1.0 | 0.00 | 0.00 | 0.00 | 76 | 1009.5 |
| 20260504030030 | 36 | 255 | 1.0 | 1.0 | 0.00 | 0.00 | 0.00 | 76 | 1009.5 |
| 20260504025507 | 36 | 255 | 0.0 | 1.0 | 0.00 | 0.00 | 0.00 | 77 | 1009.6 |
| 20260504025007 | 36 | 255 | 0.0 | 1.0 | 0.00 | 0.00 | 0.00 | 76 | 1009.5 |
| 20260504024512 | 36 | 255 | 0.0 | 2.0 | 0.00 | 0.00 | 0.00 | 76 | 1009.6 |
| 20260504024007 | 36 | 255 | 1.0 | 2.0 | 0.00 | 0.01 | 0.00 | 77 | 1009.6 |
| 20260504023506 | 36 | 255 | 1.0 | 2.0 | 0.00 | 0.01 | 0.00 | 76 | 1009.6 |
| 20260504023014 | 36 | 255 | 1.0 | 2.0 | 0.00 | 0.01 | 0.00 | 75 | 1009.6 |
| 20260504022509 | 36 | 255 | 1.0 | 2.0 | 0.00 | 0.01 | 0.00 | 75 | 1009.6 |
| 20260504022003 | 36 | 252 | 1.0 | 2.0 | 0.00 | 0.01 | 0.00 | 76 | 1009.6 |
| 20260504021516 | 36 | 252 | 1.0 | 1.0 | 0.00 | 0.01 | 0.00 | 75 | 1009.5 |
| 20260504021006 | 36 | 252 | 1.0 | 1.0 | 0.00 | 0.01 | 0.00 | 75 | 1009.5 |
| 20260504020505 | 37 | 252 | 1.0 | 1.0 | 0.00 | 0.01 | 0.00 | 74 | 1009.5 |
| 20260504020031 | 37 | 252 | 1.0 | 2.0 | 0.00 | 0.01 | 0.00 | 73 | 1009.5 |
| 20260504015506 | 37 | 252 | 1.0 | 2.0 | 0.00 | 0.01 | 0.00 | 73 | 1009.4 |
| 20260504015003 | 38 | 252 | 0.0 | 2.0 | 0.00 | 0.01 | 0.00 | 71 | 1009.5 |
| 20260504014531 | 38 | 252 | 1.0 | 2.0 | 0.00 | 0.01 | 0.00 | 72 | 1009.5 |
| 20260504014008 | 38 | 252 | 1.0 | 2.0 | 0.00 | 0.01 | 0.00 | 74 | 1009.4 |
| 20260504013503 | 38 | 254 | 1.0 | 2.0 | 0.00 | 0.01 | 0.00 | 74 | 1009.4 |
| 20260504013018 | 38 | 254 | 1.0 | 1.0 | 0.00 | 0.01 | 0.00 | 73 | 1009.3 |
| 20260504012507 | 38 | 255 | 1.0 | 1.0 | 0.00 | 0.01 | 0.00 | 71 | 1009.3 |
| 20260504012002 | 39 | 255 | 1.0 | 1.0 | 0.00 | 0.01 | 0.00 | 71 | 1009.3 |
| 20260504011520 | 39 | 255 | 0.0 | 1.0 | 0.00 | 0.01 | 0.00 | 69 | 1009.2 |
| 20260504011010 | 38 | 255 | 1.0 | 1.0 | 0.00 | 0.01 | 0.00 | 68 | 1009.2 |
| 20260504010502 | 39 | 255 | 1.0 | 1.0 | 0.00 | 0.01 | 0.00 | 67 | 1009.1 |
| 20260504010023 | 39 | 255 | 1.0 | 1.0 | 0.00 | 0.01 | 0.00 | 67 | 1009.0 |
| 20260504005507 | 39 | 254 | 1.0 | 2.0 | 0.00 | 0.01 | 0.00 | 66 | 1008.9 |
| 20260504005004 | 40 | 255 | 1.0 | 2.0 | 0.00 | 0.01 | 0.00 | 65 | 1008.8 |
| 20260504004522 | 41 | 254 | 0.0 | 2.0 | 0.00 | 0.01 | 0.00 | 63 | 1008.8 |
| 20260504004010 | 41 | 254 | 0.0 | 2.0 | 0.00 | 0.01 | 0.00 | 60 | 1008.8 |
| 20260504003505 | 41 | 255 | 0.0 | 2.0 | 0.00 | 0.01 | 0.00 | 61 | 1008.7 |
| 20260504003028 | 42 | 255 | 0.0 | 2.0 | 0.00 | 0.01 | 0.00 | 60 | 1008.7 |
| 20260504002506 | 41 | 255 | 0.0 | 1.0 | 0.00 | 0.01 | 0.00 | 64 | 1008.6 |
| 20260504002003 | 42 | 255 | 1.0 | 1.0 | 0.00 | 0.01 | 0.00 | 63 | 1008.5 |
| 20260504001523 | 42 | 255 | 1.0 | 1.0 | 0.00 | 0.01 | 0.00 | 62 | 1008.4 |
| 20260504001003 | 42 | 255 | 1.0 | 1.0 | 0.00 | 0.01 | 0.00 | 61 | 1008.3 |
| 20260504000507 | 43 | 255 | 1.0 | 1.0 | 0.00 | 0.01 | 0.00 | 60 | 1008.1 |
| 20260504000023 | 44 | 255 | 1.0 | 2.0 | 0.00 | 0.01 | 0.00 | 59 | 1008.1 |
| 20260503235503 | 44 | 254 | 1.0 | 2.0 | 0.00 | 0.01 | 0.00 | 58 | 1008.0 |
| 20260503235010 | 44 | 254 | 1.0 | 2.0 | 0.00 | 0.01 | 0.00 | 58 | 1008.0 |
| 20260503234536 | 46 | 254 | 1.0 | 2.0 | 0.00 | 0.01 | 0.00 | 54 | 1008.1 |
| 20260503234011 | 47 | 271 | 0.0 | 3.0 | 0.00 | 0.01 | 0.00 | 49 | 1008.0 |
| 20260503233505 | 48 | 271 | 1.0 | 3.0 | 0.00 | 0.01 | 0.00 | 47 | 1008.1 |
| 20260503233024 | 48 | 279 | 1.0 | 6.0 | 0.00 | 0.01 | 0.00 | 44 | 1008.1 |
| 20260503232507 | 49 | 272 | 1.0 | 6.0 | 0.00 | 0.01 | 0.00 | 44 | 1008.1 |
| 20260503232007 | 49 | 300 | 1.0 | 4.0 | 0.00 | 0.01 | 0.00 | 44 | 1008.0 |
| 20260503231527 | 49 | 302 | 1.0 | 4.0 | 0.00 | 0.01 | 0.00 | 43 | 1008.0 |
| 20260503231009 | 49 | 342 | 1.0 | 4.0 | 0.00 | 0.01 | 0.00 | 42 | 1007.9 |
| 20260503230507 | 50 | 244 | 1.0 | 4.0 | 0.00 | 0.01 | 0.00 | 42 | 1007.8 |
| 20260503230025 | 50 | 336 | 1.0 | 8.0 | 0.00 | 0.01 | 0.00 | 42 | 1007.7 |
| 20260503225503 | 50 | 292 | 3.0 | 11.0 | 0.00 | 0.01 | 0.00 | 40 | 1007.7 |
| 20260503225010 | 50 | 253 | 4.0 | 11.0 | 0.00 | 0.01 | 0.00 | 43 | 1007.6 |
| 20260503224524 | 50 | 350 | 4.0 | 12.0 | 0.00 | 0.01 | 0.00 | 43 | 1007.6 |
| 20260503224003 | 50 | 304 | 2.0 | 12.0 | 0.00 | 0.01 | 0.00 | 41 | 1007.6 |
| 20260503223507 | 51 | 248 | 5.0 | 12.0 | 0.00 | 0.01 | 0.00 | 39 | 1007.5 |
| 20260503223026 | 51 | 247 | 2.0 | 12.0 | 0.00 | 0.01 | 0.00 | 39 | 1007.5 |
| 20260503222504 | 51 | 269 | 5.0 | 12.0 | 0.00 | 0.01 | 0.00 | 39 | 1007.5 |
| 20260503222007 | 51 | 275 | 3.0 | 6.0 | 0.00 | 0.01 | 0.00 | 39 | 1007.3 |
| 20260503221534 | 52 | 300 | 2.0 | 8.0 | 0.00 | 0.01 | 0.00 | 42 | 1007.3 |
| 20260503221006 | 51 | 277 | 1.0 | 8.0 | 0.00 | 0.01 | 0.00 | 41 | 1007.3 |
| 20260503220508 | 51 | 203 | 2.0 | 10.0 | 0.00 | 0.01 | 0.00 | 40 | 1007.5 |
| 20260503220029 | 51 | 283 | 2.0 | 11.0 | 0.00 | 0.01 | 0.00 | 40 | 1007.4 |
| 20260503215509 | 51 | 227 | 1.0 | 11.0 | 0.00 | 0.01 | 0.00 | 41 | 1007.3 |
| 20260503215006 | 51 | 260 | 4.0 | 16.0 | 0.00 | 0.01 | 0.00 | 38 | 1007.1 |
| 20260503214528 | 52 | 19 | 8.0 | 16.0 | 0.00 | 0.01 | 0.00 | 37 | 1007.1 |
| 20260503214006 | 51 | 290 | 5.0 | 11.0 | 0.00 | 0.01 | 0.00 | 39 | 1007.0 |
| 20260503213508 | 52 | 259 | 4.0 | 11.0 | 0.00 | 0.01 | 0.00 | 39 | 1007.0 |
| 20260503213008 | 52 | 292 | 3.0 | 19.0 | 0.00 | 0.01 | 0.00 | 1007.0 | |
| 20260503212506 | 51 | 351 | 6.0 | 19.0 | 0.00 | 0.01 | 0.00 | 1007.0 | |
| 20260503212009 | 52 | 270 | 6.0 | 12.0 | 0.00 | 0.01 | 0.00 | 1006.9 | |
| 20260503211508 | 52 | 334 | 2.0 | 14.0 | 0.00 | 0.01 | 0.00 | 37 | 1006.7 |
| 20260503211006 | 52 | 250 | 8.0 | 14.0 | 0.00 | 0.02 | 0.00 | 37 | 1006.6 |
| 20260503210508 | 51 | 298 | 2.0 | 11.0 | 0.00 | 0.02 | 0.00 | 40 | 1006.6 |
| 20260503210029 | 52 | 281 | 3.0 | 10.0 | 0.00 | 0.02 | 0.00 | 39 | 1006.5 |
| 20260503205506 | 51 | 325 | 3.0 | 16.0 | 0.00 | 0.02 | 0.00 | 40 | 1006.6 |
| 20260503205009 | 51 | 29 | 3.0 | 16.0 | 0.00 | 0.03 | 0.00 | 38 | 1006.5 |
| 20260503204513 | 52 | 323 | 3.0 | 12.0 | 0.00 | 0.03 | 0.00 | 40 | 1006.4 |
| 20260503204005 | 52 | 313 | 7.0 | 20.0 | 0.00 | 0.03 | 0.00 | 42 | 1006.4 |
| 20260503203510 | 52 | 309 | 6.0 | 20.0 | 0.00 | 0.03 | 0.00 | 38 | 1006.4 |
| 20260503203019 | 52 | 232 | 4.0 | 11.0 | 0.00 | 0.03 | 0.00 | 39 | 1006.3 |
| 20260503202508 | 52 | 310 | 4.0 | 13.0 | 0.00 | 0.03 | 0.00 | 39 | 1006.3 |
| 20260503202014 | 52 | 40 | 6.0 | 12.0 | 0.00 | 0.03 | 0.00 | 1006.2 | |
| 20260503201514 | 52 | 281 | 5.0 | 14.0 | 0.00 | 0.03 | 0.00 | 1006.2 | |
| 20260503201009 | 52 | 259 | 4.0 | 14.0 | 0.00 | 0.03 | 0.00 | 1006.1 | |
| 20260503200510 | 52 | 309 | 2.0 | 15.0 | 0.00 | 0.03 | 0.00 | 40 | 1006.0 |
| 20260503200014 | 52 | 248 | 6.0 | 15.0 | 0.00 | 0.04 | 0.00 | 40 | 1006.0 |
| 20260503195507 | 52 | 317 | 3.0 | 12.0 | 0.00 | 0.04 | 0.00 | 40 | 1005.9 |
| 20260503195010 | 52 | 279 | 5.0 | 11.0 | 0.00 | 0.04 | 0.00 | 40 | 1005.9 |